createdAt,value
2017-03-29T00:00:04.421Z,41.06
2017-03-29T00:00:39.792Z,40.68
2017-03-29T00:01:12.055Z,40.88
2017-03-29T00:01:44.321Z,40.97
2017-03-29T00:02:16.607Z,40.88
2017-03-29T00:02:48.928Z,40.88
2017-03-29T00:04:40.849Z,41.26
2017-03-29T00:05:13.152Z,40.88
2017-03-29T00:05:45.451Z,41.35
2017-03-29T00:06:17.763Z,40.97
2017-03-29T00:06:50.076Z,40.97
2017-03-29T00:07:22.786Z,40.88
2017-03-29T00:07:55.964Z,40.97
2017-03-29T00:08:28.992Z,40.78
2017-03-29T00:09:01.707Z,40.78
2017-03-29T00:09:34.394Z,40.78
2017-03-29T00:10:07.500Z,41.26
2017-03-29T00:10:39.835Z,40.78
2017-03-29T00:11:12.169Z,40.88
2017-03-29T00:11:44.493Z,40.88
2017-03-29T00:12:16.824Z,40.68
2017-03-29T00:12:49.171Z,40.78
2017-03-29T00:14:40.872Z,40.85
2017-03-29T00:15:13.186Z,40.78
2017-03-29T00:15:45.499Z,40.78
2017-03-29T00:16:17.851Z,40.68
2017-03-29T00:16:50.534Z,40.58
2017-03-29T00:17:23.425Z,41.35
2017-03-29T00:17:55.749Z,40.68
2017-03-29T00:18:28.073Z,41.26
2017-03-29T00:19:00.399Z,40.68
2017-03-29T00:19:32.737Z,40.78
2017-03-29T00:20:05.057Z,40.68
2017-03-29T00:20:37.372Z,40.66
2017-03-29T00:22:28.944Z,40.85
2017-03-29T00:23:01.996Z,41.24
2017-03-29T00:23:37.927Z,41.26
2017-03-29T00:24:12.148Z,41.26
2017-03-29T00:24:44.463Z,40.76
2017-03-29T00:25:16.780Z,41.16
2017-03-29T00:25:49.104Z,40.97
2017-03-29T00:26:21.440Z,40.78
2017-03-29T00:26:53.761Z,40.88
2017-03-29T00:27:26.318Z,41.05
2017-03-29T00:27:59.958Z,41.16
2017-03-29T00:28:32.286Z,41.16
2017-03-29T00:29:04.609Z,41.14
2017-03-29T00:29:36.938Z,41.24
2017-03-29T00:30:09.244Z,41.14
2017-03-29T00:30:42.277Z,41.06
2017-03-29T00:32:35.418Z,41.24
2017-03-29T00:33:07.735Z,41.24
2017-03-29T00:33:40.048Z,41.14
2017-03-29T00:34:12.380Z,41.14
2017-03-29T00:34:44.697Z,41.14
2017-03-29T00:35:17.021Z,41.14
2017-03-29T00:35:49.362Z,41.24
2017-03-29T00:36:21.690Z,41.33
2017-03-29T00:36:54.043Z,41.14
2017-03-29T00:38:46.303Z,40.95
2017-03-29T00:39:18.630Z,41.05
2017-03-29T00:39:50.951Z,40.97
2017-03-29T00:40:23.276Z,41.14
2017-03-29T00:40:55.646Z,41.05
2017-03-29T00:41:27.963Z,40.85
2017-03-29T00:42:00.287Z,41.05
2017-03-29T00:42:32.592Z,41.26
2017-03-29T00:43:04.897Z,40.95
2017-03-29T00:43:37.220Z,41.05
2017-03-29T00:44:09.530Z,41.05
2017-03-29T00:44:41.859Z,41.05
2017-03-29T00:45:14.172Z,41.14
2017-03-29T00:45:46.496Z,40.88
2017-03-29T00:46:18.824Z,41.14
2017-03-29T00:46:51.155Z,41.14
2017-03-29T00:47:23.474Z,41.16
2017-03-29T00:47:55.788Z,41.05
2017-03-29T00:48:28.117Z,40.88
2017-03-29T00:49:00.431Z,41.14
2017-03-29T00:49:32.758Z,41.14
2017-03-29T00:50:05.062Z,41.14
2017-03-29T00:50:37.373Z,41.05
2017-03-29T00:51:09.703Z,41.14
2017-03-29T00:51:42.030Z,41.14
2017-03-29T00:52:14.335Z,41.14
2017-03-29T00:52:46.573Z,41.14
2017-03-29T00:53:18.833Z,41.14
2017-03-29T00:53:51.087Z,41.24
2017-03-29T00:54:23.447Z,41.05
2017-03-29T00:54:55.693Z,41.24
2017-03-29T00:55:28.769Z,41.24
2017-03-29T00:56:01.022Z,41.14
2017-03-29T00:56:33.297Z,41.24
2017-03-29T00:57:05.550Z,41.33
2017-03-29T00:57:37.794Z,41.24
2017-03-29T00:58:10.035Z,41.24
2017-03-29T00:58:42.268Z,41.43
2017-03-29T00:59:14.525Z,41.24
2017-03-29T00:59:47.366Z,41.14
2017-03-29T01:00:19.632Z,41.14
2017-03-29T01:00:51.881Z,41.14
2017-03-29T01:01:24.144Z,41.05
2017-03-29T01:01:56.419Z,41.14
2017-03-29T01:02:28.696Z,41.05
2017-03-29T01:03:00.945Z,41.43
2017-03-29T01:03:33.207Z,41.33
2017-03-29T01:04:05.466Z,41.14
2017-03-29T01:04:37.747Z,41.24
2017-03-29T01:05:10.004Z,41.33
2017-03-29T01:05:42.257Z,41.24
2017-03-29T01:06:14.523Z,41.43
2017-03-29T01:06:46.791Z,41.53
2017-03-29T01:07:19.045Z,41.43
2017-03-29T01:07:51.341Z,41.43
2017-03-29T01:08:23.589Z,41.24
2017-03-29T01:08:55.833Z,41.33
2017-03-29T01:09:28.093Z,41.45
2017-03-29T01:10:00.423Z,41.24
2017-03-29T01:10:32.683Z,41.33
2017-03-29T01:11:05.825Z,41.33
2017-03-29T01:11:38.085Z,41.62
2017-03-29T01:12:10.326Z,41.24
2017-03-29T01:12:42.579Z,41.14
2017-03-29T01:13:14.821Z,41.24
2017-03-29T01:13:47.081Z,41.53
2017-03-29T01:14:19.335Z,41.24
2017-03-29T01:14:51.582Z,41.24
2017-03-29T01:15:23.849Z,41.53
2017-03-29T01:15:56.130Z,41.24
2017-03-29T01:16:28.395Z,41.24
2017-03-29T01:17:00.666Z,41.24
2017-03-29T01:17:32.927Z,41.62
2017-03-29T01:18:05.195Z,41.33
2017-03-29T01:18:37.465Z,41.33
2017-03-29T01:19:10.328Z,41.53
2017-03-29T01:19:43.243Z,41.43
2017-03-29T01:20:15.491Z,41.43
2017-03-29T01:20:47.727Z,41.53
2017-03-29T01:21:19.980Z,41.53
2017-03-29T01:21:52.737Z,41.53
2017-03-29T01:22:25.059Z,41.72
2017-03-29T01:22:57.360Z,41.43
2017-03-29T01:23:29.672Z,41.72
2017-03-29T01:24:01.989Z,41.62
2017-03-29T01:24:34.319Z,41.72
2017-03-29T01:25:06.629Z,41.72
2017-03-29T01:25:38.954Z,41.43
2017-03-29T01:26:11.259Z,41.72
2017-03-29T01:26:43.592Z,41.72
2017-03-29T01:27:15.915Z,41.43
2017-03-29T01:27:48.233Z,41.62
2017-03-29T01:28:20.575Z,41.33
2017-03-29T01:28:52.909Z,41.53
2017-03-29T01:29:25.239Z,41.62
2017-03-29T01:29:57.543Z,41.43
2017-03-29T01:30:29.870Z,41.43
2017-03-29T01:31:02.193Z,41.72
2017-03-29T01:31:34.513Z,41.53
2017-03-29T01:32:06.842Z,41.72
2017-03-29T01:32:39.111Z,41.43
2017-03-29T01:33:11.474Z,41.43
2017-03-29T01:33:43.741Z,41.72
2017-03-29T01:34:15.992Z,41.53
2017-03-29T01:34:48.245Z,41.43
2017-03-29T01:35:20.505Z,41.43
2017-03-29T01:35:52.736Z,41.43
2017-03-29T01:36:25.911Z,41.43
2017-03-29T01:36:58.176Z,41.43
2017-03-29T01:37:30.433Z,41.43
2017-03-29T01:38:02.730Z,41.91
2017-03-29T01:38:34.980Z,41.43
2017-03-29T01:39:07.216Z,41.91
2017-03-29T01:39:39.470Z,42.1
2017-03-29T01:40:11.755Z,41.43
2017-03-29T01:40:44.018Z,41.43
2017-03-29T01:41:16.269Z,41.43
2017-03-29T01:41:48.539Z,41.91
2017-03-29T01:42:20.805Z,41.91
2017-03-29T01:42:53.041Z,41.33
2017-03-29T01:43:25.304Z,41.43
2017-03-29T01:43:57.561Z,41.91
2017-03-29T01:44:29.808Z,41.72
2017-03-29T01:45:02.744Z,41.62
2017-03-29T01:45:35.883Z,41.62
2017-03-29T01:46:08.138Z,41.53
2017-03-29T01:46:40.477Z,41.62
2017-03-29T01:47:12.736Z,41.53
2017-03-29T01:47:44.990Z,42
2017-03-29T01:48:17.238Z,41.43
2017-03-29T01:48:49.493Z,41.62
2017-03-29T01:49:21.760Z,41.53
2017-03-29T01:49:54.054Z,41.72
2017-03-29T01:50:26.326Z,41.62
2017-03-29T01:50:58.587Z,41.53
2017-03-29T01:51:30.826Z,41.62
2017-03-29T01:52:03.083Z,41.53
2017-03-29T01:52:35.395Z,42
2017-03-29T01:53:07.716Z,41.62
2017-03-29T01:53:40.028Z,41.43
2017-03-29T01:54:12.342Z,41.53
2017-03-29T01:54:44.655Z,41.53
2017-03-29T01:55:16.975Z,41.91
2017-03-29T01:55:49.316Z,41.43
2017-03-29T01:56:21.635Z,41.43
2017-03-29T01:56:53.975Z,41.53
2017-03-29T01:57:26.303Z,41.82
2017-03-29T01:57:58.628Z,41.43
2017-03-29T01:58:30.970Z,41.82
2017-03-29T01:59:03.326Z,41.33
2017-03-29T01:59:35.636Z,41.62
2017-03-29T02:00:07.958Z,41.33
2017-03-29T02:00:40.282Z,41.43
2017-03-29T02:01:12.586Z,41.82
2017-03-29T02:01:44.916Z,41.82
2017-03-29T02:02:17.249Z,41.82
2017-03-29T02:02:49.516Z,41.53
2017-03-29T02:03:21.772Z,41.53
2017-03-29T02:03:54.025Z,41.62
2017-03-29T02:04:26.808Z,41.53
2017-03-29T02:04:59.221Z,41.91
2017-03-29T02:05:31.480Z,41.72
2017-03-29T02:06:04.298Z,41.33
2017-03-29T02:06:36.550Z,41.53
2017-03-29T02:07:08.795Z,41.33
2017-03-29T02:07:41.059Z,41.72
2017-03-29T02:08:13.324Z,41.91
2017-03-29T02:08:45.699Z,41.82
2017-03-29T02:09:17.937Z,41.72
2017-03-29T02:09:50.185Z,41.53
2017-03-29T02:10:22.468Z,41.53
2017-03-29T02:10:54.771Z,41.72
2017-03-29T02:11:27.037Z,41.62
2017-03-29T02:11:59.287Z,41.82
2017-03-29T02:12:31.540Z,41.62
2017-03-29T02:13:03.801Z,41.72
2017-03-29T02:13:36.062Z,41.43
2017-03-29T02:14:09.207Z,41.72
2017-03-29T02:14:41.459Z,41.72
2017-03-29T02:15:13.914Z,41.72
2017-03-29T02:15:46.184Z,41.72
2017-03-29T02:16:18.459Z,41.62
2017-03-29T02:16:50.714Z,41.62
2017-03-29T02:17:22.966Z,41.72
2017-03-29T02:17:55.233Z,41.72
2017-03-29T02:18:27.484Z,41.72
2017-03-29T02:18:59.749Z,41.53
2017-03-29T02:19:31.992Z,41.62
2017-03-29T02:20:04.235Z,41.72
2017-03-29T02:20:36.501Z,41.62
2017-03-29T02:21:08.753Z,41.53
2017-03-29T02:21:41.003Z,41.62
2017-03-29T02:22:13.254Z,41.72
2017-03-29T02:22:45.491Z,41.72
2017-03-29T02:23:17.767Z,41.62
2017-03-29T02:23:50.015Z,41.62
2017-03-29T02:24:22.244Z,41.53
2017-03-29T02:24:54.531Z,41.82
2017-03-29T02:25:26.772Z,41.53
2017-03-29T02:25:59.025Z,41.72
2017-03-29T02:26:31.277Z,41.62
2017-03-29T02:27:03.529Z,41.62
2017-03-29T02:27:35.853Z,41.72
2017-03-29T02:28:08.107Z,41.62
2017-03-29T02:28:40.363Z,41.62
2017-03-29T02:29:12.595Z,42.1
2017-03-29T02:29:44.853Z,41.72
2017-03-29T02:30:17.110Z,41.72
2017-03-29T02:30:49.362Z,42.2
2017-03-29T02:31:21.638Z,41.82
2017-03-29T02:31:53.898Z,41.72
2017-03-29T02:32:26.155Z,41.72
2017-03-29T02:32:58.415Z,41.62
2017-03-29T02:33:30.687Z,41.62
2017-03-29T02:34:03.859Z,41.72
2017-03-29T02:34:36.102Z,41.82
2017-03-29T02:35:08.343Z,41.82
2017-03-29T02:35:40.687Z,41.91
2017-03-29T02:36:12.948Z,41.82
2017-03-29T02:36:45.214Z,41.82
2017-03-29T02:37:17.476Z,41.72
2017-03-29T02:37:49.730Z,41.82
2017-03-29T02:38:21.983Z,41.82
2017-03-29T02:38:54.244Z,41.91
2017-03-29T02:39:26.496Z,42
2017-03-29T02:39:58.752Z,41.91
2017-03-29T02:40:30.988Z,41.91
2017-03-29T02:41:03.857Z,41.91
2017-03-29T02:41:36.096Z,41.82
2017-03-29T02:42:09.256Z,41.79
2017-03-29T02:42:41.505Z,41.91
2017-03-29T02:43:13.766Z,41.91
2017-03-29T02:43:46.053Z,41.91
2017-03-29T02:44:18.330Z,42
2017-03-29T02:44:50.573Z,41.82
2017-03-29T02:45:22.831Z,41.91
2017-03-29T02:45:55.095Z,41.7
2017-03-29T02:46:27.363Z,41.82
2017-03-29T02:46:59.634Z,42
2017-03-29T02:47:31.886Z,41.91
2017-03-29T02:48:04.150Z,41.89
2017-03-29T02:48:36.414Z,41.82
2017-03-29T02:49:09.382Z,41.91
2017-03-29T02:49:41.646Z,41.91
2017-03-29T02:50:13.911Z,42
2017-03-29T02:50:46.168Z,41.91
2017-03-29T02:51:18.441Z,41.99
2017-03-29T02:51:50.785Z,41.89
2017-03-29T02:52:23.096Z,42
2017-03-29T02:52:55.416Z,42
2017-03-29T02:53:27.725Z,41.99
2017-03-29T02:54:00.048Z,41.99
2017-03-29T02:54:32.369Z,42
2017-03-29T02:55:04.679Z,42
2017-03-29T02:55:37.002Z,41.99
2017-03-29T02:56:09.347Z,42
2017-03-29T02:56:41.663Z,41.89
2017-03-29T02:57:13.994Z,41.89
2017-03-29T02:57:46.300Z,41.89
2017-03-29T02:58:18.604Z,41.79
2017-03-29T02:58:50.958Z,41.99
2017-03-29T02:59:23.294Z,41.99
2017-03-29T02:59:55.623Z,41.89
2017-03-29T03:00:27.943Z,41.91
2017-03-29T03:01:00.270Z,41.89
2017-03-29T03:01:32.614Z,41.91
2017-03-29T03:02:04.931Z,41.91
2017-03-29T03:02:37.194Z,41.99
2017-03-29T03:03:09.460Z,41.89
2017-03-29T03:03:41.713Z,42.08
2017-03-29T03:04:13.973Z,42.18
2017-03-29T03:04:46.246Z,42
2017-03-29T03:05:18.573Z,42.08
2017-03-29T03:05:50.827Z,42.08
2017-03-29T03:06:23.090Z,42.08
2017-03-29T03:06:55.360Z,42.1
2017-03-29T03:07:27.601Z,42
2017-03-29T03:07:59.851Z,42.18
2017-03-29T03:08:32.121Z,42.1
2017-03-29T03:09:04.379Z,42.1
2017-03-29T03:09:36.648Z,42.08
2017-03-29T03:10:08.908Z,42.18
2017-03-29T03:10:41.148Z,42.08
2017-03-29T03:11:13.438Z,41.89
2017-03-29T03:11:46.365Z,42
2017-03-29T03:12:18.671Z,42.08
2017-03-29T03:12:50.939Z,42.08
2017-03-29T03:13:23.215Z,42.08
2017-03-29T03:13:56.327Z,42.08
2017-03-29T03:14:29.220Z,41.91
2017-03-29T03:15:01.484Z,42.08
2017-03-29T03:15:33.751Z,42.08
2017-03-29T03:16:06.034Z,42
2017-03-29T03:16:38.283Z,41.99
2017-03-29T03:17:10.591Z,42.2
2017-03-29T03:17:42.848Z,42.08
2017-03-29T03:18:15.130Z,41.99
2017-03-29T03:18:47.409Z,42.2
2017-03-29T03:19:20.781Z,42.3
2017-03-29T03:19:53.050Z,41.99
2017-03-29T03:20:25.321Z,42.27
2017-03-29T03:20:57.729Z,42.08
2017-03-29T03:21:30.833Z,42.18
2017-03-29T03:22:03.110Z,42.27
2017-03-29T03:22:35.421Z,42.18
2017-03-29T03:23:07.732Z,42.18
2017-03-29T03:23:40.042Z,42.27
2017-03-29T03:24:12.354Z,42.18
2017-03-29T03:24:44.658Z,42.27
2017-03-29T03:25:16.993Z,42.27
2017-03-29T03:25:49.294Z,42.37
2017-03-29T03:26:21.614Z,42.18
2017-03-29T03:26:53.953Z,42.08
2017-03-29T03:27:26.274Z,42.37
2017-03-29T03:27:58.594Z,42.18
2017-03-29T03:28:30.924Z,42.37
2017-03-29T03:29:03.238Z,42.08
2017-03-29T03:29:35.558Z,42.08
2017-03-29T03:30:07.883Z,42.37
2017-03-29T03:30:40.218Z,42.27
2017-03-29T03:31:12.525Z,42.27
2017-03-29T03:31:44.838Z,42.47
2017-03-29T03:32:17.141Z,42.47
2017-03-29T03:32:49.443Z,42.27
2017-03-29T03:33:21.763Z,42.37
2017-03-29T03:33:54.070Z,42.47
2017-03-29T03:34:26.398Z,42.56
2017-03-29T03:34:58.729Z,42.47
2017-03-29T03:35:31.053Z,42.47
2017-03-29T03:36:03.381Z,42.37
2017-03-29T03:36:35.707Z,42.27
2017-03-29T03:37:08.032Z,42.08
2017-03-29T03:37:40.356Z,42.27
2017-03-29T03:38:12.683Z,42.18
2017-03-29T03:38:45.001Z,42.08
2017-03-29T03:39:17.328Z,42.18
2017-03-29T03:39:49.641Z,42.18
2017-03-29T03:40:21.958Z,42.27
2017-03-29T03:40:54.276Z,42.18
2017-03-29T03:41:26.620Z,42.27
2017-03-29T03:41:58.925Z,42.66
2017-03-29T03:42:31.189Z,42.18
2017-03-29T03:43:03.437Z,42.47
2017-03-29T03:43:35.689Z,42.27
2017-03-29T03:44:07.944Z,42.18
2017-03-29T03:44:40.185Z,42.18
2017-03-29T03:45:12.437Z,42.08
2017-03-29T03:45:44.703Z,42.27
2017-03-29T03:46:16.958Z,42.18
2017-03-29T03:46:49.237Z,42.37
2017-03-29T03:47:21.478Z,42.47
2017-03-29T03:47:53.801Z,42.08
2017-03-29T03:48:26.039Z,42.47
2017-03-29T03:48:58.282Z,42.27
2017-03-29T03:49:30.548Z,42.47
2017-03-29T03:50:02.795Z,42.37
2017-03-29T03:50:35.061Z,42.37
2017-03-29T03:51:07.325Z,42.37
2017-03-29T03:51:39.566Z,42.37
2017-03-29T03:52:11.828Z,42.27
2017-03-29T03:52:44.162Z,42.27
2017-03-29T03:53:16.482Z,42.37
2017-03-29T03:53:48.799Z,42.18
2017-03-29T03:54:21.127Z,42.27
2017-03-29T03:54:53.450Z,42.18
2017-03-29T03:55:25.769Z,42.37
2017-03-29T03:55:58.082Z,42.27
2017-03-29T03:56:30.396Z,42.27
2017-03-29T03:57:02.717Z,42.37
2017-03-29T03:57:35.041Z,42.27
2017-03-29T03:58:07.358Z,42.37
2017-03-29T03:58:39.703Z,42.37
2017-03-29T03:59:12.037Z,42.37
2017-03-29T03:59:44.347Z,42.37
2017-03-29T04:00:16.679Z,42.27
2017-03-29T04:00:48.999Z,42.27
2017-03-29T04:01:21.303Z,42.37
2017-03-29T04:01:53.602Z,42.37
2017-03-29T04:02:26.343Z,42.47
2017-03-29T04:02:58.590Z,42.37
2017-03-29T04:03:30.840Z,42.47
2017-03-29T04:04:03.095Z,42.47
2017-03-29T04:04:35.350Z,42.47
2017-03-29T04:05:08.392Z,42.47
2017-03-29T04:05:40.630Z,42.56
2017-03-29T04:06:12.919Z,42.37
2017-03-29T04:06:45.168Z,42.47
2017-03-29T04:07:17.413Z,42.37
2017-03-29T04:07:49.772Z,42.47
2017-03-29T04:08:22.027Z,42.47
2017-03-29T04:08:54.277Z,42.27
2017-03-29T04:09:26.526Z,42.47
2017-03-29T04:09:58.815Z,42.27
2017-03-29T04:10:31.080Z,42.56
2017-03-29T04:11:03.334Z,42.66
2017-03-29T04:11:35.590Z,42.56
2017-03-29T04:12:07.867Z,42.27
2017-03-29T04:12:40.121Z,42.47
2017-03-29T04:13:12.504Z,42.47
2017-03-29T04:13:44.749Z,42.47
2017-03-29T04:14:16.993Z,42.47
2017-03-29T04:14:49.266Z,42.56
2017-03-29T04:15:21.542Z,42.37
2017-03-29T04:15:53.814Z,42.56
2017-03-29T04:16:26.838Z,42.56
2017-03-29T04:16:59.127Z,42.56
2017-03-29T04:17:31.397Z,42.47
2017-03-29T04:18:03.678Z,42.56
2017-03-29T04:18:35.930Z,42.56
2017-03-29T04:19:08.224Z,42.66
2017-03-29T04:19:40.490Z,42.56
2017-03-29T04:20:12.920Z,42.56
2017-03-29T04:20:45.186Z,42.66
2017-03-29T04:21:17.439Z,42.56
2017-03-29T04:21:49.716Z,42.56
2017-03-29T04:22:22.034Z,42.56
2017-03-29T04:22:54.356Z,42.56
2017-03-29T04:23:26.673Z,42.66
2017-03-29T04:23:59.009Z,42.56
2017-03-29T04:24:31.320Z,42.56
2017-03-29T04:25:03.656Z,42.66
2017-03-29T04:25:35.971Z,42.76
2017-03-29T04:26:08.286Z,42.66
2017-03-29T04:26:40.597Z,42.56
2017-03-29T04:27:12.929Z,42.56
2017-03-29T04:27:45.270Z,42.66
2017-03-29T04:28:17.583Z,42.56
2017-03-29T04:28:49.898Z,42.76
2017-03-29T04:29:22.243Z,42.66
2017-03-29T04:29:54.556Z,42.76
2017-03-29T04:30:26.867Z,42.66
2017-03-29T04:30:59.188Z,42.85
2017-03-29T04:31:31.504Z,42.76
2017-03-29T04:32:03.820Z,42.94
2017-03-29T04:32:36.079Z,42.66
2017-03-29T04:33:08.325Z,42.66
2017-03-29T04:33:40.579Z,42.85
2017-03-29T04:34:13.458Z,42.85
2017-03-29T04:34:46.369Z,42.94
2017-03-29T04:35:18.631Z,42.66
2017-03-29T04:35:50.905Z,42.76
2017-03-29T04:36:23.152Z,42.76
2017-03-29T04:36:55.386Z,42.66
2017-03-29T04:37:27.646Z,42.76
2017-03-29T04:37:59.911Z,42.66
2017-03-29T04:38:32.174Z,42.66
2017-03-29T04:39:04.502Z,42.85
2017-03-29T04:39:36.794Z,42.66
2017-03-29T04:40:09.045Z,42.66
2017-03-29T04:40:41.297Z,42.66
2017-03-29T04:41:13.531Z,42.47
2017-03-29T04:41:45.775Z,42.85
2017-03-29T04:42:18.042Z,43.04
2017-03-29T04:42:50.356Z,42.56
2017-03-29T04:43:22.668Z,42.76
2017-03-29T04:43:54.985Z,42.66
2017-03-29T04:44:27.299Z,43.04
2017-03-29T04:44:59.601Z,43.04
2017-03-29T04:45:31.922Z,42.66
2017-03-29T04:46:04.239Z,42.76
2017-03-29T04:46:36.563Z,43.04
2017-03-29T04:47:08.876Z,42.76
2017-03-29T04:47:41.203Z,42.76
2017-03-29T04:48:13.511Z,42.76
2017-03-29T04:48:45.837Z,42.85
2017-03-29T04:49:18.163Z,42.76
2017-03-29T04:49:50.494Z,42.76
2017-03-29T04:50:22.794Z,42.76
2017-03-29T04:50:55.114Z,42.66
2017-03-29T04:51:27.420Z,42.66
2017-03-29T04:51:59.735Z,42.76
2017-03-29T04:52:32.063Z,42.76
2017-03-29T04:53:04.374Z,42.64
2017-03-29T04:53:36.686Z,42.56
2017-03-29T04:54:08.999Z,42.66
2017-03-29T04:54:41.314Z,42.76
2017-03-29T04:55:13.633Z,42.76
2017-03-29T04:55:45.952Z,42.76
2017-03-29T04:56:18.269Z,42.66
2017-03-29T04:56:50.590Z,42.66
2017-03-29T04:57:22.918Z,42.85
2017-03-29T04:57:55.241Z,42.85
2017-03-29T04:58:27.561Z,42.76
2017-03-29T04:58:59.873Z,42.76
2017-03-29T04:59:32.183Z,42.76
2017-03-29T05:00:04.499Z,42.66
2017-03-29T05:00:36.816Z,42.76
2017-03-29T05:01:09.128Z,42.85
2017-03-29T05:01:41.442Z,42.76
2017-03-29T05:02:13.756Z,42.76
2017-03-29T05:02:46.069Z,42.76
2017-03-29T05:03:18.387Z,42.85
2017-03-29T05:03:50.683Z,42.85
2017-03-29T05:04:22.986Z,42.76
2017-03-29T05:04:55.301Z,42.66
2017-03-29T05:05:27.622Z,42.66
2017-03-29T05:05:59.938Z,42.76
2017-03-29T05:06:32.253Z,42.76
2017-03-29T05:07:04.584Z,42.66
2017-03-29T05:07:36.898Z,42.76
2017-03-29T05:08:09.207Z,42.94
2017-03-29T05:08:41.505Z,42.94
2017-03-29T05:09:13.820Z,42.94
2017-03-29T05:09:46.142Z,42.85
2017-03-29T05:10:18.489Z,42.94
2017-03-29T05:10:50.795Z,42.94
2017-03-29T05:11:23.109Z,42.85
2017-03-29T05:11:55.467Z,42.85
2017-03-29T05:12:27.784Z,42.85
2017-03-29T05:13:00.108Z,42.66
2017-03-29T05:13:32.430Z,42.66
2017-03-29T05:14:04.747Z,42.94
2017-03-29T05:14:37.065Z,42.66
2017-03-29T05:15:09.382Z,42.94
2017-03-29T05:15:41.683Z,42.94
2017-03-29T05:16:14.005Z,42.94
2017-03-29T05:16:46.335Z,43.04
2017-03-29T05:17:18.680Z,42.94
2017-03-29T05:17:51.019Z,42.66
2017-03-29T05:18:23.330Z,42.94
2017-03-29T05:18:55.641Z,42.85
2017-03-29T05:19:27.956Z,42.94
2017-03-29T05:20:00.282Z,42.85
2017-03-29T05:20:32.644Z,42.85
2017-03-29T05:21:04.949Z,42.85
2017-03-29T05:21:37.267Z,42.94
2017-03-29T05:22:09.579Z,42.94
2017-03-29T05:22:41.855Z,42.76
2017-03-29T05:23:14.142Z,42.85
2017-03-29T05:23:46.415Z,42.94
2017-03-29T05:24:18.659Z,43.04
2017-03-29T05:24:51.478Z,42.76
2017-03-29T05:25:24.394Z,42.85
2017-03-29T05:25:56.663Z,42.85
2017-03-29T05:26:29.454Z,42.85
2017-03-29T05:27:02.370Z,42.85
2017-03-29T05:27:34.642Z,42.76
2017-03-29T05:28:07.481Z,42.94
2017-03-29T05:28:39.888Z,42.94
2017-03-29T05:29:12.156Z,43.04
2017-03-29T05:29:44.437Z,43.04
2017-03-29T05:30:16.788Z,43.33
2017-03-29T05:30:49.043Z,42.85
2017-03-29T05:31:21.888Z,43.04
2017-03-29T05:31:54.168Z,42.85
2017-03-29T05:32:27.358Z,43.23
2017-03-29T05:32:59.666Z,42.85
2017-03-29T05:33:31.984Z,43.33
2017-03-29T05:35:25.543Z,42.85
2017-03-29T05:35:57.943Z,43.23
2017-03-29T05:36:30.269Z,42.94
2017-03-29T05:37:02.600Z,43.43
2017-03-29T05:37:34.935Z,43.04
2017-03-29T05:38:07.254Z,43.23
2017-03-29T05:38:39.562Z,43.23
2017-03-29T05:39:11.889Z,43.23
2017-03-29T05:39:44.203Z,43.14
2017-03-29T05:40:16.514Z,42.94
2017-03-29T05:40:48.822Z,43.14
2017-03-29T05:41:21.164Z,43.33
2017-03-29T05:41:53.795Z,43.14
2017-03-29T05:42:26.062Z,43.23
2017-03-29T05:42:58.316Z,43.14
2017-03-29T05:43:30.615Z,43.23
2017-03-29T05:44:02.877Z,43.43
2017-03-29T05:44:36.453Z,43.33
2017-03-29T05:45:09.299Z,43.23
2017-03-29T05:45:41.537Z,43.23
2017-03-29T05:46:13.788Z,43.33
2017-03-29T05:46:46.036Z,43.33
2017-03-29T05:47:18.884Z,43.33
2017-03-29T05:47:51.149Z,43.23
2017-03-29T05:48:23.407Z,43.33
2017-03-29T05:48:55.661Z,42.94
2017-03-29T05:49:28.387Z,43.43
2017-03-29T05:50:00.695Z,42.94
2017-03-29T05:50:32.981Z,43.14
2017-03-29T05:51:05.258Z,43.14
2017-03-29T05:51:37.551Z,42.94
2017-03-29T05:52:09.801Z,43.04
2017-03-29T05:52:42.051Z,42.94
2017-03-29T05:53:14.311Z,43.43
2017-03-29T05:53:47.935Z,43.14
2017-03-29T05:54:20.193Z,42.94
2017-03-29T05:54:52.535Z,43.04
2017-03-29T05:55:24.804Z,43.04
2017-03-29T05:55:57.979Z,43.23
2017-03-29T05:56:30.228Z,43.14
2017-03-29T05:57:02.503Z,42.94
2017-03-29T05:57:35.294Z,43.04
2017-03-29T05:58:07.553Z,42.94
2017-03-29T05:58:40.571Z,43.04
2017-03-29T05:59:13.006Z,43.04
2017-03-29T05:59:45.512Z,43.33
2017-03-29T06:00:17.893Z,42.94
2017-03-29T06:00:50.246Z,43.23
2017-03-29T06:01:22.502Z,43.04
2017-03-29T06:01:54.774Z,43.04
2017-03-29T06:02:27.101Z,43.04
2017-03-29T06:02:59.442Z,42.94
2017-03-29T06:03:31.752Z,43.43
2017-03-29T06:04:04.094Z,43.04
2017-03-29T06:04:36.416Z,43.23
2017-03-29T06:05:08.745Z,43.14
2017-03-29T06:05:41.081Z,43.33
2017-03-29T06:06:13.407Z,43.43
2017-03-29T06:06:45.712Z,42.94
2017-03-29T06:07:18.021Z,42.94
2017-03-29T06:07:50.327Z,43.43
2017-03-29T06:08:22.636Z,43.52
2017-03-29T06:08:54.957Z,43.04
2017-03-29T06:09:27.424Z,43.23
2017-03-29T06:10:00.572Z,43.23
2017-03-29T06:10:32.896Z,43.14
2017-03-29T06:11:05.216Z,43.43
2017-03-29T06:11:37.542Z,43.04
2017-03-29T06:12:10.458Z,43.23
2017-03-29T06:12:43.318Z,43.52
2017-03-29T06:13:15.568Z,43.14
2017-03-29T06:13:47.841Z,43.43
2017-03-29T06:14:20.139Z,43.14
2017-03-29T06:14:52.422Z,43.33
2017-03-29T06:15:25.416Z,43.52
2017-03-29T06:15:58.445Z,43.23
2017-03-29T06:16:30.700Z,43.14
2017-03-29T06:17:03.112Z,43.23
2017-03-29T06:17:35.430Z,43.04
2017-03-29T06:18:08.411Z,43.43
2017-03-29T06:18:40.815Z,43.14
2017-03-29T06:19:13.081Z,43.23
2017-03-29T06:19:45.379Z,43.23
2017-03-29T06:20:17.636Z,43.14
2017-03-29T06:20:49.890Z,43.23
2017-03-29T06:21:23.504Z,43.14
2017-03-29T06:21:55.802Z,43.14
2017-03-29T06:22:28.979Z,43.04
2017-03-29T06:23:01.872Z,43.14
2017-03-29T06:23:34.141Z,43.23
2017-03-29T06:24:07.447Z,43.04
2017-03-29T06:24:39.717Z,43.33
2017-03-29T06:25:12.044Z,43.14
2017-03-29T06:25:44.342Z,43.23
2017-03-29T06:26:17.420Z,43.04
2017-03-29T06:26:49.693Z,43.14
2017-03-29T06:27:22.517Z,43.04
2017-03-29T06:27:54.778Z,43.04
2017-03-29T06:28:27.071Z,43.04
2017-03-29T06:29:00.023Z,43.23
2017-03-29T06:29:32.933Z,43.14
2017-03-29T06:30:05.997Z,42.97
2017-03-29T06:30:39.007Z,43.43
2017-03-29T06:31:12.070Z,43.14
2017-03-29T06:31:44.330Z,43.35
2017-03-29T06:32:16.610Z,43.33
2017-03-29T06:32:48.878Z,43.04
2017-03-29T06:33:21.828Z,43.52
2017-03-29T06:33:54.804Z,43.23
2017-03-29T06:34:27.058Z,43.07
2017-03-29T06:35:00.064Z,43.07
2017-03-29T06:35:34.038Z,43.26
2017-03-29T06:36:06.976Z,43.07
2017-03-29T06:36:39.274Z,43.43
2017-03-29T06:37:12.311Z,43.43
2017-03-29T06:37:45.507Z,43.07
2017-03-29T06:38:17.808Z,43.14
2017-03-29T06:38:50.081Z,43.04
2017-03-29T06:39:22.921Z,42.94
2017-03-29T06:39:55.196Z,43.54
2017-03-29T06:40:27.475Z,43.04
2017-03-29T06:41:00.455Z,43.14
2017-03-29T06:41:32.721Z,43.23
2017-03-29T06:42:05.009Z,43.23
2017-03-29T06:42:37.308Z,43.23
2017-03-29T06:43:09.720Z,43.14
2017-03-29T06:43:41.989Z,43.16
2017-03-29T06:44:14.252Z,42.97
2017-03-29T06:44:46.500Z,43.07
2017-03-29T06:45:19.390Z,43.07
2017-03-29T06:45:51.672Z,43.23
2017-03-29T06:46:23.939Z,43.14
2017-03-29T06:46:56.187Z,43.35
2017-03-29T06:47:28.492Z,43.07
2017-03-29T06:48:01.513Z,43.23
2017-03-29T06:48:33.795Z,43.26
2017-03-29T06:49:06.879Z,43.04
2017-03-29T06:49:40.016Z,43.23
2017-03-29T06:50:14.060Z,43.16
2017-03-29T06:50:46.972Z,43.26
2017-03-29T06:51:19.281Z,43.23
2017-03-29T06:51:51.539Z,43.35
2017-03-29T06:52:23.857Z,43.26
2017-03-29T06:52:56.169Z,43.07
2017-03-29T06:53:28.510Z,43.14
2017-03-29T06:54:00.848Z,43.14
2017-03-29T06:54:33.178Z,43.16
2017-03-29T06:55:05.495Z,43.26
2017-03-29T06:55:37.845Z,43.07
2017-03-29T06:56:10.154Z,43.16
2017-03-29T06:56:42.477Z,43.26
2017-03-29T06:57:14.798Z,43.26
2017-03-29T06:57:47.107Z,43.23
2017-03-29T06:58:19.420Z,43.04
2017-03-29T06:58:51.739Z,43.33
2017-03-29T06:59:24.043Z,43.26
2017-03-29T06:59:56.345Z,43.14
2017-03-29T07:00:28.683Z,43.26
2017-03-29T07:01:01.008Z,43.23
2017-03-29T07:01:33.326Z,43.04
2017-03-29T07:02:05.636Z,43.26
2017-03-29T07:02:37.957Z,43.35
2017-03-29T07:03:10.300Z,43.35
2017-03-29T07:03:42.672Z,43.26
2017-03-29T07:04:15.180Z,43.26
2017-03-29T07:04:47.976Z,43.33
2017-03-29T07:05:20.831Z,43.26
2017-03-29T07:05:53.534Z,43.16